sensor_id;sensor_type;location;lat;lon;timestamp;temperature;humidity
530;DHT22;251;48.704;9.210;2024-03-02T00:01:23;3.70;87.70
530;DHT22;251;48.704;9.210;2024-03-02T00:03:50;3.70;89.70
530;DHT22;251;48.704;9.210;2024-03-02T00:06:19;3.70;89.30
530;DHT22;251;48.704;9.210;2024-03-02T00:08:46;3.70;88.50
530;DHT22;251;48.704;9.210;2024-03-02T00:11:13;3.70;87.40
530;DHT22;251;48.704;9.210;2024-03-02T00:13:42;3.70;88.90
530;DHT22;251;48.704;9.210;2024-03-02T00:16:10;3.70;86.80
530;DHT22;251;48.704;9.210;2024-03-02T00:18:37;3.70;86.70
530;DHT22;251;48.704;9.210;2024-03-02T00:21:06;3.70;85.90
530;DHT22;251;48.704;9.210;2024-03-02T00:23:35;3.70;87.00
530;DHT22;251;48.704;9.210;2024-03-02T00:26:02;3.70;86.90
530;DHT22;251;48.704;9.210;2024-03-02T00:28:32;3.70;86.60
530;DHT22;251;48.704;9.210;2024-03-02T00:31:02;3.60;86.70
530;DHT22;251;48.704;9.210;2024-03-02T00:33:34;3.70;90.00
530;DHT22;251;48.704;9.210;2024-03-02T00:36:01;3.70;90.10
530;DHT22;251;48.704;9.210;2024-03-02T00:38:29;3.70;90.00
530;DHT22;251;48.704;9.210;2024-03-02T00:40:56;3.60;90.20
530;DHT22;251;48.704;9.210;2024-03-02T00:43:41;3.70;91.50
530;DHT22;251;48.704;9.210;2024-03-02T00:46:13;3.70;90.80
530;DHT22;251;48.704;9.210;2024-03-02T00:48:56;3.70;90.40
530;DHT22;251;48.704;9.210;2024-03-02T00:51:24;3.60;90.30
530;DHT22;251;48.704;9.210;2024-03-02T00:53:51;3.60;89.10
530;DHT22;251;48.704;9.210;2024-03-02T00:56:20;3.60;90.60
530;DHT22;251;48.704;9.210;2024-03-02T00:58:48;3.60;90.10
530;DHT22;251;48.704;9.210;2024-03-02T01:01:16;3.60;89.50
530;DHT22;251;48.704;9.210;2024-03-02T01:03:43;3.60;91.00
530;DHT22;251;48.704;9.210;2024-03-02T01:06:09;3.60;92.00
530;DHT22;251;48.704;9.210;2024-03-02T01:08:36;3.60;92.30
530;DHT22;251;48.704;9.210;2024-03-02T01:11:03;3.60;93.20
530;DHT22;251;48.704;9.210;2024-03-02T01:13:30;3.60;93.60
530;DHT22;251;48.704;9.210;2024-03-02T01:15:57;3.60;93.40
530;DHT22;251;48.704;9.210;2024-03-02T01:18:26;3.60;92.80
530;DHT22;251;48.704;9.210;2024-03-02T01:20:53;3.50;92.80
530;DHT22;251;48.704;9.210;2024-03-02T01:23:21;3.50;93.50
530;DHT22;251;48.704;9.210;2024-03-02T01:25:48;3.50;94.00
530;DHT22;251;48.704;9.210;2024-03-02T01:28:15;3.50;93.40
530;DHT22;251;48.704;9.210;2024-03-02T01:30:42;3.40;93.00
530;DHT22;251;48.704;9.210;2024-03-02T01:33:09;3.40;93.70
530;DHT22;251;48.704;9.210;2024-03-02T01:35:37;3.40;94.50
530;DHT22;251;48.704;9.210;2024-03-02T01:38:04;3.30;94.60
530;DHT22;251;48.704;9.210;2024-03-02T01:40:33;3.30;95.00
530;DHT22;251;48.704;9.210;2024-03-02T01:43:00;3.30;95.30
530;DHT22;251;48.704;9.210;2024-03-02T01:45:28;3.20;95.10
530;DHT22;251;48.704;9.210;2024-03-02T01:47:55;3.20;95.90
530;DHT22;251;48.704;9.210;2024-03-02T01:50:26;3.10;96.30
530;DHT22;251;48.704;9.210;2024-03-02T01:52:55;3.10;96.20
530;DHT22;251;48.704;9.210;2024-03-02T01:55:22;3.10;96.90
530;DHT22;251;48.704;9.210;2024-03-02T01:57:48;3.00;96.90
530;DHT22;251;48.704;9.210;2024-03-02T02:00:16;3.00;97.80
530;DHT22;251;48.704;9.210;2024-03-02T02:02:44;2.90;97.90
530;DHT22;251;48.704;9.210;2024-03-02T02:05:10;2.90;98.70
530;DHT22;251;48.704;9.210;2024-03-02T02:07:38;2.80;99.10
530;DHT22;251;48.704;9.210;2024-03-02T02:10:06;2.80;99.90
530;DHT22;251;48.704;9.210;2024-03-02T02:12:33;2.80;99.90
530;DHT22;251;48.704;9.210;2024-03-02T02:15:00;2.70;99.90
530;DHT22;251;48.704;9.210;2024-03-02T02:17:27;2.70;98.80
530;DHT22;251;48.704;9.210;2024-03-02T02:19:54;2.60;99.80
530;DHT22;251;48.704;9.210;2024-03-02T02:22:22;2.60;99.90
530;DHT22;251;48.704;9.210;2024-03-02T02:24:48;2.50;99.90
530;DHT22;251;48.704;9.210;2024-03-02T02:27:15;2.50;99.90
530;DHT22;251;48.704;9.210;2024-03-02T02:29:42;2.50;99.90
530;DHT22;251;48.704;9.210;2024-03-02T02:32:08;2.40;99.90
530;DHT22;251;48.704;9.210;2024-03-02T02:34:35;2.40;99.90
530;DHT22;251;48.704;9.210;2024-03-02T02:37:02;2.30;99.90
530;DHT22;251;48.704;9.210;2024-03-02T02:39:30;2.30;99.90
530;DHT22;251;48.704;9.210;2024-03-02T02:41:57;2.20;99.90
530;DHT22;251;48.704;9.210;2024-03-02T02:44:26;2.20;99.90
530;DHT22;251;48.704;9.210;2024-03-02T02:46:52;2.20;99.90
530;DHT22;251;48.704;9.210;2024-03-02T02:49:19;2.20;99.90
530;DHT22;251;48.704;9.210;2024-03-02T02:51:46;2.10;99.90
530;DHT22;251;48.704;9.210;2024-03-02T02:54:12;2.10;99.90
530;DHT22;251;48.704;9.210;2024-03-02T02:56:41;2.00;99.90
530;DHT22;251;48.704;9.210;2024-03-02T02:59:07;2.00;99.90
530;DHT22;251;48.704;9.210;2024-03-02T03:01:34;1.90;99.90
530;DHT22;251;48.704;9.210;2024-03-02T03:04:01;1.90;99.90
530;DHT22;251;48.704;9.210;2024-03-02T03:06:27;1.90;99.90
530;DHT22;251;48.704;9.210;2024-03-02T03:08:54;1.90;99.90
530;DHT22;251;48.704;9.210;2024-03-02T03:11:21;1.80;99.90
530;DHT22;251;48.704;9.210;2024-03-02T03:13:51;1.80;99.90
530;DHT22;251;48.704;9.210;2024-03-02T03:16:19;1.80;99.90
530;DHT22;251;48.704;9.210;2024-03-02T03:18:46;1.80;99.90
530;DHT22;251;48.704;9.210;2024-03-02T03:21:15;1.80;99.90
530;DHT22;251;48.704;9.210;2024-03-02T03:23:42;1.80;99.90
530;DHT22;251;48.704;9.210;2024-03-02T03:26:09;1.70;99.90
530;DHT22;251;48.704;9.210;2024-03-02T03:28:35;1.70;99.90
530;DHT22;251;48.704;9.210;2024-03-02T03:31:04;1.70;99.90
530;DHT22;251;48.704;9.210;2024-03-02T03:33:31;1.60;99.90
530;DHT22;251;48.704;9.210;2024-03-02T03:35:57;1.60;99.90
530;DHT22;251;48.704;9.210;2024-03-02T03:38:24;1.50;99.90
530;DHT22;251;48.704;9.210;2024-03-02T03:40:51;1.50;99.90
530;DHT22;251;48.704;9.210;2024-03-02T03:43:17;1.50;99.90
530;DHT22;251;48.704;9.210;2024-03-02T03:45:44;1.40;99.70
530;DHT22;251;48.704;9.210;2024-03-02T03:48:12;1.40;99.90
530;DHT22;251;48.704;9.210;2024-03-02T03:50:39;1.40;99.90
530;DHT22;251;48.704;9.210;2024-03-02T03:53:06;1.30;99.90
530;DHT22;251;48.704;9.210;2024-03-02T03:55:33;1.30;99.90
530;DHT22;251;48.704;9.210;2024-03-02T03:57:59;1.30;99.90
530;DHT22;251;48.704;9.210;2024-03-02T04:00:26;1.20;99.90
530;DHT22;251;48.704;9.210;2024-03-02T04:02:53;1.20;99.90
530;DHT22;251;48.704;9.210;2024-03-02T04:05:21;1.20;99.90
530;DHT22;251;48.704;9.210;2024-03-02T04:07:48;1.20;99.90
530;DHT22;251;48.704;9.210;2024-03-02T04:10:15;1.20;99.90
530;DHT22;251;48.704;9.210;2024-03-02T04:12:42;1.10;99.90
530;DHT22;251;48.704;9.210;2024-03-02T04:15:09;1.10;99.90
530;DHT22;251;48.704;9.210;2024-03-02T04:17:36;1.00;97.80
530;DHT22;251;48.704;9.210;2024-03-02T04:20:03;1.00;97.00
530;DHT22;251;48.704;9.210;2024-03-02T04:22:34;0.90;96.80
530;DHT22;251;48.704;9.210;2024-03-02T04:25:01;0.90;97.80
530;DHT22;251;48.704;9.210;2024-03-02T04:27:30;0.90;97.80
530;DHT22;251;48.704;9.210;2024-03-02T04:29:57;0.90;98.30
530;DHT22;251;48.704;9.210;2024-03-02T04:32:23;0.90;98.30
530;DHT22;251;48.704;9.210;2024-03-02T04:34:50;0.90;98.50
530;DHT22;251;48.704;9.210;2024-03-02T04:37:17;0.80;99.20
530;DHT22;251;48.704;9.210;2024-03-02T04:39:45;0.80;99.60
530;DHT22;251;48.704;9.210;2024-03-02T04:42:11;0.80;99.20
530;DHT22;251;48.704;9.210;2024-03-02T04:44:38;0.80;98.50
530;DHT22;251;48.704;9.210;2024-03-02T04:47:05;0.80;99.10
530;DHT22;251;48.704;9.210;2024-03-02T04:49:32;0.80;98.80
530;DHT22;251;48.704;9.210;2024-03-02T04:51:59;0.70;98.90
530;DHT22;251;48.704;9.210;2024-03-02T04:54:25;0.70;99.70
530;DHT22;251;48.704;9.210;2024-03-02T04:56:54;0.70;99.60
530;DHT22;251;48.704;9.210;2024-03-02T04:59:20;0.70;99.70
530;DHT22;251;48.704;9.210;2024-03-02T05:01:47;0.70;98.70
530;DHT22;251;48.704;9.210;2024-03-02T05:04:14;0.60;99.00
530;DHT22;251;48.704;9.210;2024-03-02T05:06:41;0.60;98.70
530;DHT22;251;48.704;9.210;2024-03-02T05:09:08;0.60;98.20
530;DHT22;251;48.704;9.210;2024-03-02T05:11:34;0.50;97.30
530;DHT22;251;48.704;9.210;2024-03-02T05:14:20;0.60;97.70
530;DHT22;251;48.704;9.210;2024-03-02T05:16:47;0.50;96.30
530;DHT22;251;48.704;9.210;2024-03-02T05:19:13;0.40;96.90
530;DHT22;251;48.704;9.210;2024-03-02T05:21:40;0.40;97.60
530;DHT22;251;48.704;9.210;2024-03-02T05:24:07;0.40;98.20
530;DHT22;251;48.704;9.210;2024-03-02T05:26:34;0.40;98.20
530;DHT22;251;48.704;9.210;2024-03-02T05:29:00;0.40;97.40
530;DHT22;251;48.704;9.210;2024-03-02T05:31:29;0.20;95.30
530;DHT22;251;48.704;9.210;2024-03-02T05:33:56;0.20;96.50
530;DHT22;251;48.704;9.210;2024-03-02T05:36:23;0.20;97.50
530;DHT22;251;48.704;9.210;2024-03-02T05:38:49;0.20;99.50
530;DHT22;251;48.704;9.210;2024-03-02T05:41:17;0.20;99.90
530;DHT22;251;48.704;9.210;2024-03-02T05:43:43;0.20;99.90
530;DHT22;251;48.704;9.210;2024-03-02T05:46:10;0.30;99.90
530;DHT22;251;48.704;9.210;2024-03-02T05:48:38;0.30;99.90
530;DHT22;251;48.704;9.210;2024-03-02T05:51:05;0.20;99.90
530;DHT22;251;48.704;9.210;2024-03-02T05:53:32;0.30;99.90
530;DHT22;251;48.704;9.210;2024-03-02T05:55:59;0.20;99.90
530;DHT22;251;48.704;9.210;2024-03-02T05:58:26;0.20;99.80
530;DHT22;251;48.704;9.210;2024-03-02T06:01:03;0.20;99.90
530;DHT22;251;48.704;9.210;2024-03-02T06:03:31;0.10;99.90
530;DHT22;251;48.704;9.210;2024-03-02T06:05:59;0.20;99.90
530;DHT22;251;48.704;9.210;2024-03-02T06:08:26;0.20;99.90
530;DHT22;251;48.704;9.210;2024-03-02T06:10:53;0.20;99.90
530;DHT22;251;48.704;9.210;2024-03-02T06:13:19;0.20;99.30
530;DHT22;251;48.704;9.210;2024-03-02T06:15:46;0.20;99.20
530;DHT22;251;48.704;9.210;2024-03-02T06:18:13;0.20;99.50
530;DHT22;251;48.704;9.210;2024-03-02T06:20:40;0.20;99.90
530;DHT22;251;48.704;9.210;2024-03-02T06:23:08;0.30;99.90
530;DHT22;251;48.704;9.210;2024-03-02T06:25:35;0.30;99.90
530;DHT22;251;48.704;9.210;2024-03-02T06:28:02;0.30;99.90
530;DHT22;251;48.704;9.210;2024-03-02T06:30:29;0.30;99.90
530;DHT22;251;48.704;9.210;2024-03-02T06:32:56;0.40;99.90
530;DHT22;251;48.704;9.210;2024-03-02T06:35:23;0.50;99.90
530;DHT22;251;48.704;9.210;2024-03-02T06:37:50;0.60;99.90
530;DHT22;251;48.704;9.210;2024-03-02T06:40:18;0.60;99.90
530;DHT22;251;48.704;9.210;2024-03-02T06:42:44;0.70;99.00
530;DHT22;251;48.704;9.210;2024-03-02T06:45:11;0.70;97.70
530;DHT22;251;48.704;9.210;2024-03-02T06:47:38;0.80;96.90
530;DHT22;251;48.704;9.210;2024-03-02T06:50:05;0.90;94.50
530;DHT22;251;48.704;9.210;2024-03-02T06:52:33;0.90;94.00
530;DHT22;251;48.704;9.210;2024-03-02T06:55:00;1.00;93.00
530;DHT22;251;48.704;9.210;2024-03-02T06:57:28;1.10;93.60
530;DHT22;251;48.704;9.210;2024-03-02T06:59:54;1.20;93.70
530;DHT22;251;48.704;9.210;2024-03-02T07:02:24;1.20;93.20
530;DHT22;251;48.704;9.210;2024-03-02T07:04:52;1.30;92.50
530;DHT22;251;48.704;9.210;2024-03-02T07:07:19;1.40;91.90
530;DHT22;251;48.704;9.210;2024-03-02T07:09:46;1.50;92.10
530;DHT22;251;48.704;9.210;2024-03-02T07:12:13;1.60;92.80
530;DHT22;251;48.704;9.210;2024-03-02T07:14:41;1.60;92.60
530;DHT22;251;48.704;9.210;2024-03-02T07:17:25;1.70;91.90
530;DHT22;251;48.704;9.210;2024-03-02T07:19:52;1.80;90.50
530;DHT22;251;48.704;9.210;2024-03-02T07:22:19;1.90;90.40
530;DHT22;251;48.704;9.210;2024-03-02T07:24:46;2.00;90.60
530;DHT22;251;48.704;9.210;2024-03-02T07:27:13;2.10;89.80
530;DHT22;251;48.704;9.210;2024-03-02T07:29:42;2.30;89.50
530;DHT22;251;48.704;9.210;2024-03-02T07:32:09;2.40;89.70
530;DHT22;251;48.704;9.210;2024-03-02T07:34:37;2.50;90.50
530;DHT22;251;48.704;9.210;2024-03-02T07:37:04;2.60;91.30
530;DHT22;251;48.704;9.210;2024-03-02T07:39:31;2.70;90.60
530;DHT22;251;48.704;9.210;2024-03-02T07:41:59;2.90;90.80
530;DHT22;251;48.704;9.210;2024-03-02T07:44:26;3.00;91.40
530;DHT22;251;48.704;9.210;2024-03-02T07:46:54;3.10;93.10
530;DHT22;251;48.704;9.210;2024-03-02T07:49:21;3.10;94.40
530;DHT22;251;48.704;9.210;2024-03-02T07:51:47;3.20;95.50
530;DHT22;251;48.704;9.210;2024-03-02T07:54:14;3.30;97.10
530;DHT22;251;48.704;9.210;2024-03-02T07:56:41;3.30;98.10
530;DHT22;251;48.704;9.210;2024-03-02T07:59:08;3.40;99.10
530;DHT22;251;48.704;9.210;2024-03-02T08:01:35;3.40;99.90
530;DHT22;251;48.704;9.210;2024-03-02T08:04:03;3.40;99.90
530;DHT22;251;48.704;9.210;2024-03-02T08:06:31;3.50;99.90
530;DHT22;251;48.704;9.210;2024-03-02T08:08:59;3.50;99.90
530;DHT22;251;48.704;9.210;2024-03-02T08:11:26;3.50;99.90
530;DHT22;251;48.704;9.210;2024-03-02T08:13:54;3.50;99.90
530;DHT22;251;48.704;9.210;2024-03-02T08:16:21;3.60;99.90
530;DHT22;251;48.704;9.210;2024-03-02T08:18:49;3.60;99.90
530;DHT22;251;48.704;9.210;2024-03-02T08:21:17;3.70;99.90
530;DHT22;251;48.704;9.210;2024-03-02T08:23:44;3.70;99.90
530;DHT22;251;48.704;9.210;2024-03-02T08:26:11;3.80;99.90
530;DHT22;251;48.704;9.210;2024-03-02T08:28:39;3.80;99.90
530;DHT22;251;48.704;9.210;2024-03-02T08:31:07;3.90;99.90
530;DHT22;251;48.704;9.210;2024-03-02T08:33:34;4.00;99.90
530;DHT22;251;48.704;9.210;2024-03-02T08:36:01;4.10;99.90
530;DHT22;251;48.704;9.210;2024-03-02T08:38:31;4.20;99.90
530;DHT22;251;48.704;9.210;2024-03-02T08:40:57;4.30;99.90
530;DHT22;251;48.704;9.210;2024-03-02T08:43:24;4.40;99.90
530;DHT22;251;48.704;9.210;2024-03-02T08:45:51;4.50;99.90
530;DHT22;251;48.704;9.210;2024-03-02T08:48:18;4.60;99.90
530;DHT22;251;48.704;9.210;2024-03-02T08:50:46;4.70;99.90
530;DHT22;251;48.704;9.210;2024-03-02T08:53:13;4.80;99.90
530;DHT22;251;48.704;9.210;2024-03-02T08:55:45;4.90;99.10
530;DHT22;251;48.704;9.210;2024-03-02T08:58:12;5.00;96.70
530;DHT22;251;48.704;9.210;2024-03-02T09:00:39;5.20;93.70
530;DHT22;251;48.704;9.210;2024-03-02T09:03:06;5.30;89.10
530;DHT22;251;48.704;9.210;2024-03-02T09:05:33;5.50;80.30
530;DHT22;251;48.704;9.210;2024-03-02T09:07:59;5.60;71.00
530;DHT22;251;48.704;9.210;2024-03-02T09:10:26;5.70;68.00
530;DHT22;251;48.704;9.210;2024-03-02T09:12:54;5.80;65.50
530;DHT22;251;48.704;9.210;2024-03-02T09:15:21;5.90;64.30
530;DHT22;251;48.704;9.210;2024-03-02T09:17:48;6.00;58.30
530;DHT22;251;48.704;9.210;2024-03-02T09:20:14;6.20;58.40
530;DHT22;251;48.704;9.210;2024-03-02T09:22:42;6.30;56.20
530;DHT22;251;48.704;9.210;2024-03-02T09:25:08;6.40;56.00
530;DHT22;251;48.704;9.210;2024-03-02T09:27:36;6.50;53.70
530;DHT22;251;48.704;9.210;2024-03-02T09:30:08;6.50;53.80
530;DHT22;251;48.704;9.210;2024-03-02T09:32:36;6.60;52.90
530;DHT22;251;48.704;9.210;2024-03-02T09:35:04;6.70;50.80
530;DHT22;251;48.704;9.210;2024-03-02T09:37:31;6.90;47.80
530;DHT22;251;48.704;9.210;2024-03-02T09:39:57;7.00;45.50
530;DHT22;251;48.704;9.210;2024-03-02T09:42:24;7.00;47.40
530;DHT22;251;48.704;9.210;2024-03-02T09:44:52;7.20;49.90
530;DHT22;251;48.704;9.210;2024-03-02T09:47:20;7.20;48.60
530;DHT22;251;48.704;9.210;2024-03-02T09:49:47;7.30;46.30
530;DHT22;251;48.704;9.210;2024-03-02T09:52:14;7.40;47.20
530;DHT22;251;48.704;9.210;2024-03-02T09:54:41;7.50;46.10
530;DHT22;251;48.704;9.210;2024-03-02T09:57:09;7.60;46.60
530;DHT22;251;48.704;9.210;2024-03-02T09:59:36;7.70;44.30
530;DHT22;251;48.704;9.210;2024-03-02T10:02:03;7.80;41.80
530;DHT22;251;48.704;9.210;2024-03-02T10:04:34;8.00;41.20
530;DHT22;251;48.704;9.210;2024-03-02T10:07:12;8.10;41.80
530;DHT22;251;48.704;9.210;2024-03-02T10:09:40;8.20;41.50
530;DHT22;251;48.704;9.210;2024-03-02T10:12:08;8.20;41.30
530;DHT22;251;48.704;9.210;2024-03-02T10:14:35;8.30;40.80
530;DHT22;251;48.704;9.210;2024-03-02T10:17:03;8.40;41.60
530;DHT22;251;48.704;9.210;2024-03-02T10:19:30;8.50;40.80
530;DHT22;251;48.704;9.210;2024-03-02T10:22:00;8.60;40.80
530;DHT22;251;48.704;9.210;2024-03-02T10:24:34;8.70;39.80
530;DHT22;251;48.704;9.210;2024-03-02T10:27:02;8.70;38.30
530;DHT22;251;48.704;9.210;2024-03-02T10:29:29;8.90;37.10
530;DHT22;251;48.704;9.210;2024-03-02T10:31:56;8.90;35.00
530;DHT22;251;48.704;9.210;2024-03-02T10:34:24;9.00;35.30
530;DHT22;251;48.704;9.210;2024-03-02T10:36:51;9.20;34.00
530;DHT22;251;48.704;9.210;2024-03-02T10:39:19;9.20;34.20
530;DHT22;251;48.704;9.210;2024-03-02T10:41:49;9.30;34.20
530;DHT22;251;48.704;9.210;2024-03-02T10:44:19;9.40;34.20
530;DHT22;251;48.704;9.210;2024-03-02T10:46:47;9.40;31.80
530;DHT22;251;48.704;9.210;2024-03-02T10:49:16;9.50;31.70
530;DHT22;251;48.704;9.210;2024-03-02T10:51:43;9.60;31.90
530;DHT22;251;48.704;9.210;2024-03-02T10:54:10;9.70;31.70
530;DHT22;251;48.704;9.210;2024-03-02T10:56:39;9.80;32.00
530;DHT22;251;48.704;9.210;2024-03-02T10:59:16;9.80;30.70
530;DHT22;251;48.704;9.210;2024-03-02T11:01:47;9.90;29.90
530;DHT22;251;48.704;9.210;2024-03-02T11:04:16;10.00;29.30
530;DHT22;251;48.704;9.210;2024-03-02T11:06:48;10.10;29.40
530;DHT22;251;48.704;9.210;2024-03-02T11:09:18;10.20;29.20
530;DHT22;251;48.704;9.210;2024-03-02T11:11:53;10.30;28.10
530;DHT22;251;48.704;9.210;2024-03-02T11:14:24;10.40;28.00
530;DHT22;251;48.704;9.210;2024-03-02T11:16:51;10.60;26.80
530;DHT22;251;48.704;9.210;2024-03-02T11:19:19;10.80;26.30
530;DHT22;251;48.704;9.210;2024-03-02T11:21:46;11.00;25.40
530;DHT22;251;48.704;9.210;2024-03-02T11:24:33;11.30;23.30
530;DHT22;251;48.704;9.210;2024-03-02T11:27:02;11.80;22.00
530;DHT22;251;48.704;9.210;2024-03-02T11:29:44;12.30;19.80
530;DHT22;251;48.704;9.210;2024-03-02T11:32:14;13.00;19.90
530;DHT22;251;48.704;9.210;2024-03-02T11:34:42;13.50;18.70
530;DHT22;251;48.704;9.210;2024-03-02T11:37:11;13.90;17.50
530;DHT22;251;48.704;9.210;2024-03-02T11:39:39;14.30;16.90
530;DHT22;251;48.704;9.210;2024-03-02T11:42:07;14.80;17.40
530;DHT22;251;48.704;9.210;2024-03-02T11:44:35;15.20;16.10
530;DHT22;251;48.704;9.210;2024-03-02T11:47:06;15.60;13.70
530;DHT22;251;48.704;9.210;2024-03-02T11:49:37;15.90;12.30
530;DHT22;251;48.704;9.210;2024-03-02T11:52:05;16.30;11.30
530;DHT22;251;48.704;9.210;2024-03-02T11:54:33;16.60;11.80
530;DHT22;251;48.704;9.210;2024-03-02T11:57:01;16.90;10.00
530;DHT22;251;48.704;9.210;2024-03-02T11:59:30;17.10;9.60
530;DHT22;251;48.704;9.210;2024-03-02T12:01:58;17.30;8.30
530;DHT22;251;48.704;9.210;2024-03-02T12:04:26;17.30;8.10
530;DHT22;251;48.704;9.210;2024-03-02T12:06:56;17.30;7.10
530;DHT22;251;48.704;9.210;2024-03-02T12:09:25;17.50;7.50
530;DHT22;251;48.704;9.210;2024-03-02T12:12:02;17.80;6.10
530;DHT22;251;48.704;9.210;2024-03-02T12:14:30;18.10;5.00
530;DHT22;251;48.704;9.210;2024-03-02T12:16:57;18.40;5.20
530;DHT22;251;48.704;9.210;2024-03-02T12:19:25;18.70;4.30
530;DHT22;251;48.704;9.210;2024-03-02T12:21:52;18.90;3.60
530;DHT22;251;48.704;9.210;2024-03-02T12:24:20;19.10;4.10
530;DHT22;251;48.704;9.210;2024-03-02T12:26:48;19.30;5.40
530;DHT22;251;48.704;9.210;2024-03-02T12:29:16;19.60;3.50
530;DHT22;251;48.704;9.210;2024-03-02T12:31:44;19.80;1.20
530;DHT22;251;48.704;9.210;2024-03-02T12:34:12;20.20;2.00
530;DHT22;251;48.704;9.210;2024-03-02T12:36:40;20.50;1.00
530;DHT22;251;48.704;9.210;2024-03-02T12:39:07;20.80;1.00
530;DHT22;251;48.704;9.210;2024-03-02T12:41:36;21.10;1.00
530;DHT22;251;48.704;9.210;2024-03-02T12:44:03;21.20;1.00
530;DHT22;251;48.704;9.210;2024-03-02T12:46:30;21.50;1.00
530;DHT22;251;48.704;9.210;2024-03-02T12:48:58;21.70;1.00
530;DHT22;251;48.704;9.210;2024-03-02T12:51:27;21.70;1.00
530;DHT22;251;48.704;9.210;2024-03-02T12:53:54;22.00;1.00
530;DHT22;251;48.704;9.210;2024-03-02T12:56:21;21.80;1.00
530;DHT22;251;48.704;9.210;2024-03-02T12:58:53;21.40;1.00
530;DHT22;251;48.704;9.210;2024-03-02T13:01:20;21.00;1.00
530;DHT22;251;48.704;9.210;2024-03-02T13:03:48;20.60;1.00
530;DHT22;251;48.704;9.210;2024-03-02T13:06:17;20.00;1.00
530;DHT22;251;48.704;9.210;2024-03-02T13:08:45;19.70;1.00
530;DHT22;251;48.704;9.210;2024-03-02T13:11:12;19.60;1.00
530;DHT22;251;48.704;9.210;2024-03-02T13:13:39;19.60;1.00
530;DHT22;251;48.704;9.210;2024-03-02T13:16:08;19.50;1.00
530;DHT22;251;48.704;9.210;2024-03-02T13:18:36;19.10;1.00
530;DHT22;251;48.704;9.210;2024-03-02T13:21:03;18.80;1.00
530;DHT22;251;48.704;9.210;2024-03-02T13:23:31;18.50;1.00
530;DHT22;251;48.704;9.210;2024-03-02T13:25:58;18.30;1.00
530;DHT22;251;48.704;9.210;2024-03-02T13:28:25;18.30;1.00
530;DHT22;251;48.704;9.210;2024-03-02T13:30:52;18.30;1.00
530;DHT22;251;48.704;9.210;2024-03-02T13:33:19;18.20;1.00
530;DHT22;251;48.704;9.210;2024-03-02T13:35:48;18.10;1.00
530;DHT22;251;48.704;9.210;2024-03-02T13:38:16;18.10;1.00
530;DHT22;251;48.704;9.210;2024-03-02T13:40:45;18.20;1.00
530;DHT22;251;48.704;9.210;2024-03-02T13:43:17;18.30;1.00
530;DHT22;251;48.704;9.210;2024-03-02T13:45:44;18.50;1.00
530;DHT22;251;48.704;9.210;2024-03-02T13:48:11;18.70;1.00
530;DHT22;251;48.704;9.210;2024-03-02T13:50:37;18.90;1.00
530;DHT22;251;48.704;9.210;2024-03-02T13:53:04;19.00;1.00
530;DHT22;251;48.704;9.210;2024-03-02T13:55:32;18.80;1.00
530;DHT22;251;48.704;9.210;2024-03-02T13:58:00;18.30;1.00
530;DHT22;251;48.704;9.210;2024-03-02T14:00:27;17.90;1.00
530;DHT22;251;48.704;9.210;2024-03-02T14:02:54;17.60;1.00
530;DHT22;251;48.704;9.210;2024-03-02T14:05:21;17.30;1.00
530;DHT22;251;48.704;9.210;2024-03-02T14:07:48;17.00;1.00
530;DHT22;251;48.704;9.210;2024-03-02T14:10:15;16.70;1.50
530;DHT22;251;48.704;9.210;2024-03-02T14:12:43;16.50;1.00
530;DHT22;251;48.704;9.210;2024-03-02T14:15:11;16.30;1.20
530;DHT22;251;48.704;9.210;2024-03-02T14:17:38;16.10;1.20
530;DHT22;251;48.704;9.210;2024-03-02T14:20:06;15.90;2.10
530;DHT22;251;48.704;9.210;2024-03-02T14:22:35;15.80;2.70
530;DHT22;251;48.704;9.210;2024-03-02T14:25:03;15.60;2.70
530;DHT22;251;48.704;9.210;2024-03-02T14:27:30;15.50;2.70
530;DHT22;251;48.704;9.210;2024-03-02T14:29:57;15.40;2.20
530;DHT22;251;48.704;9.210;2024-03-02T14:32:25;15.50;2.40
530;DHT22;251;48.704;9.210;2024-03-02T14:34:52;15.70;2.90
530;DHT22;251;48.704;9.210;2024-03-02T14:37:18;16.00;2.10
530;DHT22;251;48.704;9.210;2024-03-02T14:39:45;16.40;1.80
530;DHT22;251;48.704;9.210;2024-03-02T14:42:12;16.80;1.00
530;DHT22;251;48.704;9.210;2024-03-02T14:44:39;17.00;1.70
530;DHT22;251;48.704;9.210;2024-03-02T14:47:06;17.40;1.00
530;DHT22;251;48.704;9.210;2024-03-02T14:49:34;17.60;1.00
530;DHT22;251;48.704;9.210;2024-03-02T14:52:03;17.80;1.00
530;DHT22;251;48.704;9.210;2024-03-02T14:54:30;18.10;1.00
530;DHT22;251;48.704;9.210;2024-03-02T14:56:57;18.50;1.00
530;DHT22;251;48.704;9.210;2024-03-02T14:59:24;18.50;1.00
530;DHT22;251;48.704;9.210;2024-03-02T15:01:51;18.60;1.00
530;DHT22;251;48.704;9.210;2024-03-02T15:04:17;18.60;1.00
530;DHT22;251;48.704;9.210;2024-03-02T15:06:47;18.70;1.00
530;DHT22;251;48.704;9.210;2024-03-02T15:09:14;18.70;1.00
530;DHT22;251;48.704;9.210;2024-03-02T15:11:44;18.60;1.00
530;DHT22;251;48.704;9.210;2024-03-02T15:14:11;18.30;1.00
530;DHT22;251;48.704;9.210;2024-03-02T15:16:38;18.10;1.00
530;DHT22;251;48.704;9.210;2024-03-02T15:19:05;17.80;1.00
530;DHT22;251;48.704;9.210;2024-03-02T15:21:31;17.50;1.00
530;DHT22;251;48.704;9.210;2024-03-02T15:23:59;17.10;1.00
530;DHT22;251;48.704;9.210;2024-03-02T15:26:26;16.70;1.00
530;DHT22;251;48.704;9.210;2024-03-02T15:28:54;16.30;1.00
530;DHT22;251;48.704;9.210;2024-03-02T15:31:21;15.90;1.00
530;DHT22;251;48.704;9.210;2024-03-02T15:33:48;15.50;1.00
530;DHT22;251;48.704;9.210;2024-03-02T15:36:15;15.10;1.00
530;DHT22;251;48.704;9.210;2024-03-02T15:38:42;14.80;1.90
530;DHT22;251;48.704;9.210;2024-03-02T15:41:10;14.60;2.60
530;DHT22;251;48.704;9.210;2024-03-02T15:43:37;14.40;2.80
530;DHT22;251;48.704;9.210;2024-03-02T15:46:06;14.30;4.00
530;DHT22;251;48.704;9.210;2024-03-02T15:48:33;14.20;4.00
530;DHT22;251;48.704;9.210;2024-03-02T15:51:00;14.00;5.10
530;DHT22;251;48.704;9.210;2024-03-02T15:53:29;13.80;5.60
530;DHT22;251;48.704;9.210;2024-03-02T15:55:55;13.60;6.40
530;DHT22;251;48.704;9.210;2024-03-02T15:58:24;13.50;7.00
530;DHT22;251;48.704;9.210;2024-03-02T16:00:50;13.30;7.90
530;DHT22;251;48.704;9.210;2024-03-02T16:03:17;13.10;8.10
530;DHT22;251;48.704;9.210;2024-03-02T16:05:46;13.00;8.80
530;DHT22;251;48.704;9.210;2024-03-02T16:08:13;12.90;9.50
530;DHT22;251;48.704;9.210;2024-03-02T16:10:40;12.80;9.60
530;DHT22;251;48.704;9.210;2024-03-02T16:13:07;12.60;10.00
530;DHT22;251;48.704;9.210;2024-03-02T16:15:35;12.50;10.80
530;DHT22;251;48.704;9.210;2024-03-02T16:18:02;12.40;11.70
530;DHT22;251;48.704;9.210;2024-03-02T16:20:29;12.30;12.30
530;DHT22;251;48.704;9.210;2024-03-02T16:22:55;12.20;12.50
530;DHT22;251;48.704;9.210;2024-03-02T16:25:22;12.10;12.80
530;DHT22;251;48.704;9.210;2024-03-02T16:27:50;12.00;13.50
530;DHT22;251;48.704;9.210;2024-03-02T16:30:17;11.90;13.60
530;DHT22;251;48.704;9.210;2024-03-02T16:32:46;11.80;13.90
530;DHT22;251;48.704;9.210;2024-03-02T16:35:13;11.70;14.40
530;DHT22;251;48.704;9.210;2024-03-02T16:37:40;11.60;14.30
530;DHT22;251;48.704;9.210;2024-03-02T16:40:08;11.50;14.70
530;DHT22;251;48.704;9.210;2024-03-02T16:42:35;11.40;15.00
530;DHT22;251;48.704;9.210;2024-03-02T16:45:02;11.30;15.40
530;DHT22;251;48.704;9.210;2024-03-02T16:47:29;11.30;15.60
530;DHT22;251;48.704;9.210;2024-03-02T16:49:57;11.20;16.00
530;DHT22;251;48.704;9.210;2024-03-02T16:52:24;11.10;16.50